Time;durP1;ratioP1;P1;durP2;ratioP2;P2;SDS_P1;SDS_P2;PMS_P1;PMS_P2;Temp;Humidity;BMP_temperature;BMP_pressure;BME280_temperature;BME280_humidity;BME280_pressure;Samples;Min_cycle;Max_cycle;Signal;HPM_P1;HPM_P2
2021/05/09 10:19:25;;;;;;;15.23;2.13;;;21.50;99.90;;;;;;6161905;22;20489;-59
2021/05/09 10:21:51;;;;;;;14.25;3.13;;;21.80;99.90;;;;;;5000323;28;20418;-61
2021/05/09 10:24:22;;;;;;;7.43;1.80;;;21.80;99.90;;;;;;5007491;28;20052;-59
2021/05/09 10:26:49;;;;;;;10.00;1.90;;;22.10;99.90;;;;;;5009362;28;20029;-60
2021/05/09 10:29:34;;;;;;;6.82;1.92;;;22.30;99.90;;;;;;5009989;28;20444;-61
2021/05/09 10:32:09;;;;;;;10.15;2.63;;;22.40;99.90;;;;;;4989672;28;20065;-61
2021/05/09 10:34:56;;;;;;;3.88;1.90;;;22.50;99.90;;;;;;5007898;28;20116;-61
2021/05/09 10:40:36;;;;;;;8.40;2.15;;;22.80;99.90;;;;;;5010036;28;20073;-61
2021/05/09 10:43:04;;;;;;;10.02;2.03;;;22.80;99.90;;;;;;4989330;28;20079;-60
2021/05/09 10:45:33;;;;;;;4.82;1.75;;;22.60;99.90;;;;;;5009999;28;20080;-61
2021/05/09 10:50:44;;;;;;;7.38;2.10;;;22.80;99.90;;;;;;5009852;28;20050;-60
2021/05/09 10:56:02;;;;;;;12.70;2.30;;;22.60;99.90;;;;;;5010007;28;20789;-58
2021/05/09 10:58:49;;;;;;;9.93;2.65;;;22.60;99.90;;;;;;5009424;28;20785;-59
2021/05/09 11:01:20;;;;;;;8.07;1.90;;;22.60;99.90;;;;;;5008238;28;20072;-61
2021/05/09 11:03:46;;;;;;;6.50;1.95;;;22.70;99.90;;;;;;5005955;28;20391;-59
2021/05/09 11:06:26;;;;;;;5.03;1.60;;;22.80;99.90;;;;;;5009126;28;20038;-60
2021/05/09 11:08:56;;;;;;;7.88;1.70;;;22.80;99.90;;;;;;5010235;28;20117;-58
2021/05/09 11:11:31;;;;;;;20.05;3.05;;;22.60;99.90;;;;;;4991521;28;20402;-60
2021/05/09 11:14:03;;;;;;;5.03;1.88;;;22.60;99.90;;;;;;5009837;28;20026;-62
2021/05/09 11:16:31;;;;;;;9.00;2.13;;;22.50;99.90;;;;;;5004414;28;20539;-61
2021/05/09 11:19:08;;;;;;;3.30;1.50;;;22.80;99.90;;;;;;5002028;28;20034;-60
2021/05/09 11:21:41;;;;;;;9.63;2.25;;;22.80;99.90;;;;;;5008928;28;20595;-60
2021/05/09 11:24:09;;;;;;;8.65;2.03;;;22.80;99.90;;;;;;5004329;28;20736;-61
2021/05/09 11:26:46;;;;;;;9.20;2.70;;;22.90;99.90;;;;;;5009600;28;20395;-59
2021/05/09 11:29:13;;;;;;;4.68;2.10;;;23.00;99.90;;;;;;5008908;28;20042;-58
2021/05/09 11:31:42;;;;;;;7.05;2.90;;;23.00;99.90;;;;;;5008607;28;20550;-59
2021/05/09 11:34:08;;;;;;;10.55;3.40;;;23.00;99.90;;;;;;5010003;28;20487;-59
2021/05/09 11:36:36;;;;;;;13.90;2.53;;;23.00;99.90;;;;;;5008430;28;20046;-59
2021/05/09 11:39:17;;;;;;;6.05;2.30;;;23.00;99.90;;;;;;5007514;28;20506;-60
2021/05/09 11:41:51;;;;;;;9.25;2.75;;;23.00;99.90;;;;;;5008092;28;20112;-59
2021/05/09 11:44:17;;;;;;;4.93;1.70;;;22.90;99.90;;;;;;5008884;28;20133;-59
2021/05/09 11:46:43;;;;;;;6.88;2.40;;;22.90;99.90;;;;;;5007963;28;20045;-60
2021/05/09 11:49:27;;;;;;;6.13;2.03;;;22.80;99.90;;;;;;5009978;28;20038;-61
2021/05/09 11:51:58;;;;;;;11.02;3.00;;;22.80;99.90;;;;;;4994799;28;20041;-59
2021/05/09 11:54:29;;;;;;;5.00;2.10;;;23.00;99.90;;;;;;5012830;28;20042;-62
2021/05/09 11:56:57;;;;;;;7.70;2.20;;;23.20;99.90;;;;;;5013496;28;20056;-61
2021/05/09 11:59:35;;;;;;;9.25;2.20;;;23.20;99.90;;;;;;5012630;28;20041;-59
2021/05/09 12:02:17;;;;;;;14.02;2.35;;;23.10;99.90;;;;;;5011742;28;20391;-59
2021/05/09 12:04:48;;;;;;;5.72;1.88;;;23.10;99.90;;;;;;5015192;28;20493;-60
2021/05/09 12:07:23;;;;;;;8.63;2.00;;;23.10;99.90;;;;;;5022630;28;20042;-59
2021/05/09 12:09:50;;;;;;;13.95;2.97;;;23.10;99.90;;;;;;5009738;28;20054;-59
2021/05/09 12:12:21;;;;;;;7.35;2.20;;;23.20;99.90;;;;;;5012206;28;20092;-59
2021/05/09 12:14:47;;;;;;;6.55;2.13;;;23.30;99.90;;;;;;5012985;28;20041;-60
2021/05/09 12:17:27;;;;;;;5.43;2.13;;;23.40;99.90;;;;;;5012451;28;20379;-59
2021/05/09 12:19:54;;;;;;;7.80;2.30;;;23.50;99.90;;;;;;5012531;28;20038;-59
2021/05/09 12:22:20;;;;;;;8.73;2.15;;;23.60;99.90;;;;;;5011729;28;20041;-58
2021/05/09 12:24:53;;;;;;;5.15;1.90;;;23.60;99.90;;;;;;5013433;28;20081;-59
2021/05/09 12:27:19;;;;;;;5.38;1.80;;;23.40;99.90;;;;;;5012985;28;20526;-61
2021/05/09 12:29:52;;;;;;;5.03;2.08;;;23.20;99.90;;;;;;5013052;28;20048;-59
2021/05/09 12:32:26;;;;;;;10.40;1.95;;;23.20;99.90;;;;;;5011804;28;20050;-60
2021/05/09 12:35:05;;;;;;;3.27;1.60;;;23.10;99.90;;;;;;5012947;28;20034;-59
2021/05/09 12:37:46;;;;;;;7.05;2.13;;;22.80;99.90;;;;;;5011985;28;20036;-59
2021/05/09 12:40:29;;;;;;;8.18;1.88;;;22.80;99.90;;;;;;5012911;28;20125;-61
2021/05/09 12:42:56;;;;;;;6.53;1.65;;;22.80;99.90;;;;;;4999657;28;20104;-60
2021/05/09 12:45:36;;;;;;;6.88;2.05;;;22.90;99.90;;;;;;5012637;28;20141;-60
2021/05/09 12:48:04;;;;;;;7.25;1.90;;;22.90;99.90;;;;;;5000241;28;20117;-61
2021/05/09 12:50:44;;;;;;;4.85;1.50;;;22.80;99.90;;;;;;5013052;28;20053;-59
2021/05/09 12:53:10;;;;;;;7.78;1.80;;;22.70;99.90;;;;;;4999702;28;20786;-60
2021/05/09 12:55:36;;;;;;;10.30;1.92;;;22.50;99.90;;;;;;5010447;28;20034;-59
2021/05/09 12:58:13;;;;;;;3.80;2.20;;;22.40;99.90;;;;;;5010878;28;20077;-59
2021/05/09 13:00:40;;;;;;;5.72;1.48;;;22.30;99.90;;;;;;5005697;28;20572;-60
2021/05/09 13:03:06;;;;;;;5.38;1.40;;;22.30;99.90;;;;;;5011098;28;20171;-60
2021/05/09 13:05:32;;;;;;;4.90;1.40;;;22.10;99.90;;;;;;5012410;28;20076;-60
2021/05/09 13:07:58;;;;;;;3.47;1.60;;;22.00;99.90;;;;;;5010889;28;20065;-62
2021/05/09 13:10:26;;;;;;;9.60;2.22;;;22.00;99.90;;;;;;5012403;28;20085;-59
2021/05/09 13:12:56;;;;;;;7.15;1.88;;;22.10;99.90;;;;;;5011782;28;20095;-60
2021/05/09 13:15:23;;;;;;;7.80;1.50;;;22.30;99.90;;;;;;5011205;28;20479;-60
2021/05/09 13:17:49;;;;;;;4.10;1.88;;;22.40;99.90;;;;;;5010491;28;20087;-60
2021/05/09 13:20:16;;;;;;;6.80;2.80;;;22.40;99.90;;;;;;5010538;28;20092;-59
2021/05/09 13:22:43;;;;;;;4.97;1.85;;;22.40;99.90;;;;;;5011394;28;20042;-59
2021/05/09 13:25:09;;;;;;;4.28;1.50;;;22.30;99.90;;;;;;5018955;28;20037;-58
2021/05/09 13:27:35;;;;;;;5.47;1.60;;;22.10;99.90;;;;;;5017360;28;20061;-62
2021/05/09 13:30:04;;;;;;;2.65;1.75;;;22.30;99.90;;;;;;5005703;28;20081;-60
2021/05/09 13:32:30;;;;;;;5.97;2.50;;;22.40;99.90;;;;;;5009305;28;20133;-60
2021/05/09 13:34:56;;;;;;;11.25;3.42;;;22.30;99.90;;;;;;5011675;28;20117;-60
2021/05/09 13:37:21;;;;;;;7.82;2.95;;;22.30;99.90;;;;;;5018174;28;20076;-59
2021/05/09 13:39:48;;;;;;;8.05;3.20;;;22.30;99.90;;;;;;5008224;28;20045;-60
2021/05/09 13:42:13;;;;;;;4.60;2.38;;;22.30;99.90;;;;;;5011330;28;20083;-62
2021/05/09 13:44:40;;;;;;;7.45;2.30;;;22.30;99.90;;;;;;5011513;28;20038;-60
2021/05/09 13:47:05;;;;;;;7.10;2.17;;;22.20;99.90;;;;;;5010804;28;20045;-60
2021/05/09 13:49:31;;;;;;;8.43;3.00;;;22.10;99.90;;;;;;5006678;28;20034;-58
2021/05/09 13:51:57;;;;;;;5.00;2.10;;;21.90;99.90;;;;;;5011479;28;20037;-59
2021/05/09 13:54:22;;;;;;;6.10;2.70;;;22.00;99.90;;;;;;5010153;28;20120;-60
2021/05/09 13:56:49;;;;;;;5.65;2.20;;;22.10;99.90;;;;;;5010632;28;20037;-57
2021/05/09 13:59:15;;;;;;;4.78;2.13;;;22.30;99.90;;;;;;5010046;28;20103;-60
2021/05/09 14:01:41;;;;;;;5.40;1.77;;;22.30;99.90;;;;;;5009786;28;20510;-60
2021/05/09 14:04:09;;;;;;;5.57;1.88;;;22.30;99.90;;;;;;5009618;28;20128;-60
2021/05/09 14:06:35;;;;;;;10.32;2.50;;;22.30;99.90;;;;;;5010249;28;20038;-60
2021/05/09 14:09:02;;;;;;;8.52;3.30;;;22.40;99.90;;;;;;5012366;28;20046;-59
2021/05/09 14:11:28;;;;;;;4.45;2.17;;;22.20;99.90;;;;;;5011101;28;20041;-59
2021/05/09 14:13:54;;;;;;;5.57;2.42;;;22.30;99.90;;;;;;5010123;28;20037;-60
2021/05/09 14:16:22;;;;;;;4.60;2.25;;;22.30;99.90;;;;;;5011316;28;20554;-59
2021/05/09 14:18:48;;;;;;;9.25;2.38;;;22.30;99.90;;;;;;5009701;28;20725;-60
2021/05/09 14:21:14;;;;;;;8.13;2.53;;;22.20;99.90;;;;;;5010719;28;20077;-59
2021/05/09 14:23:40;;;;;;;3.97;1.95;;;22.20;99.90;;;;;;5009416;28;20643;-59
2021/05/09 14:26:06;;;;;;;3.42;1.80;;;22.00;99.90;;;;;;5008888;28;20487;-60
2021/05/09 14:28:32;;;;;;;9.35;2.72;;;22.10;99.90;;;;;;5007463;28;20040;-59
2021/05/09 14:30:58;;;;;;;4.47;1.70;;;22.10;99.90;;;;;;4986609;28;20431;-60
2021/05/09 14:33:24;;;;;;;11.50;2.80;;;22.00;99.90;;;;;;5004914;28;20092;-60
2021/05/09 14:35:49;;;;;;;3.53;1.92;;;22.00;99.90;;;;;;5005026;28;20034;-60
2021/05/09 14:38:15;;;;;;;6.35;1.77;;;21.90;99.90;;;;;;5008912;28;20045;-58
2021/05/09 14:40:43;;;;;;;2.83;1.40;;;22.00;99.90;;;;;;5010377;28;20521;-58
2021/05/09 14:43:10;;;;;;;4.43;2.22;;;22.20;99.90;;;;;;5009947;28;20084;-59
2021/05/09 14:45:36;;;;;;;4.38;1.92;;;22.30;99.90;;;;;;5010679;28;20470;-57
2021/05/09 14:48:02;;;;;;;3.55;1.60;;;22.20;99.90;;;;;;5009036;28;20034;-59
2021/05/09 14:50:28;;;;;;;4.88;2.00;;;22.20;99.90;;;;;;5010003;28;20045;-60
2021/05/09 14:52:54;;;;;;;3.72;1.90;;;22.00;99.90;;;;;;5004890;28;20064;-58
2021/05/09 14:55:20;;;;;;;5.93;1.90;;;21.90;99.90;;;;;;5007325;28;20096;-60
2021/05/09 14:57:46;;;;;;;5.38;1.98;;;21.80;99.90;;;;;;5004653;28;20487;-58
2021/05/09 15:00:13;;;;;;;8.38;2.30;;;21.80;99.90;;;;;;5008919;28;20033;-57
2021/05/09 15:02:39;;;;;;;5.22;1.70;;;21.90;99.90;;;;;;4991495;28;20188;-60
2021/05/09 15:05:07;;;;;;;4.47;1.80;;;21.80;99.90;;;;;;5009636;28;20072;-59
2021/05/09 15:07:33;;;;;;;6.32;1.80;;;21.90;99.90;;;;;;5008145;28;20042;-59
2021/05/09 15:09:59;;;;;;;7.72;2.58;;;21.80;99.90;;;;;;5008725;28;20751;-59
2021/05/09 15:12:25;;;;;;;6.18;2.05;;;21.80;99.90;;;;;;5009691;28;20030;-60
2021/05/09 15:14:51;;;;;;;4.05;1.73;;;21.70;99.90;;;;;;5009393;28;20041;-60
2021/05/09 15:17:17;;;;;;;8.77;2.10;;;21.70;99.90;;;;;;5009729;28;20069;-59
2021/05/09 15:19:44;;;;;;;5.63;1.95;;;21.30;99.90;;;;;;5021266;28;20049;-60
2021/05/09 15:22:10;;;;;;;7.75;2.10;;;21.20;99.90;;;;;;5009802;28;20038;-62
2021/05/09 15:24:37;;;;;;;6.93;1.70;;;21.20;99.90;;;;;;5008173;28;20509;-61
2021/05/09 15:27:03;;;;;;;4.68;2.10;;;21.10;99.90;;;;;;5013562;28;20041;-63
2021/05/09 15:29:31;;;;;;;10.88;2.42;;;21.10;99.90;;;;;;5012678;28;20061;-61
2021/05/09 15:31:57;;;;;;;4.25;1.95;;;21.00;99.90;;;;;;5013455;28;20064;-65
2021/05/09 15:34:25;;;;;;;5.55;1.88;;;20.80;99.90;;;;;;5010553;28;20041;-61
2021/05/09 15:36:52;;;;;;;5.85;2.25;;;20.70;99.90;;;;;;5013651;28;20065;-61
2021/05/09 15:39:18;;;;;;;7.93;2.17;;;20.80;99.90;;;;;;5013003;28;20068;-59
2021/05/09 15:41:44;;;;;;;9.38;2.33;;;20.80;99.90;;;;;;5012737;28;20061;-59
2021/05/09 15:44:10;;;;;;;9.02;3.47;;;20.80;99.90;;;;;;5012888;28;20041;-59
2021/05/09 15:46:36;;;;;;;31.55;16.52;;;20.70;99.90;;;;;;5014164;28;20037;-58
2021/05/09 15:49:02;;;;;;;14.10;4.35;;;20.70;99.90;;;;;;5012675;28;20446;-59
2021/05/09 15:51:27;;;;;;;5.25;2.10;;;20.70;99.90;;;;;;5013313;28;20033;-59
2021/05/09 15:53:53;;;;;;;9.13;2.25;;;20.90;99.90;;;;;;5012369;28;20045;-61
2021/05/09 15:56:19;;;;;;;6.85;2.30;;;20.80;99.90;;;;;;5013696;28;20096;-62
2021/05/09 15:58:44;;;;;;;8.15;1.95;;;20.80;99.90;;;;;;5011832;28;20072;-59
2021/05/09 16:01:10;;;;;;;3.50;1.90;;;20.90;99.90;;;;;;5013138;28;20117;-62
2021/05/09 16:03:36;;;;;;;9.85;1.85;;;20.80;99.90;;;;;;5012640;28;20030;-61
2021/05/09 16:06:03;;;;;;;6.70;1.80;;;20.90;99.90;;;;;;5012185;28;20065;-61
2021/05/09 16:08:28;;;;;;;3.90;1.70;;;20.90;99.90;;;;;;5011722;28;20037;-59
2021/05/09 16:10:54;;;;;;;7.45;2.15;;;20.80;99.90;;;;;;5013029;28;20050;-60
2021/05/09 16:13:21;;;;;;;5.40;2.08;;;20.80;99.90;;;;;;5010914;28;20050;-59
2021/05/09 16:15:46;;;;;;;5.60;2.03;;;20.90;99.90;;;;;;5012742;28;20033;-62
2021/05/09 16:18:12;;;;;;;6.55;1.80;;;21.00;99.90;;;;;;5008159;28;20033;-61
2021/05/09 16:20:38;;;;;;;5.40;2.03;;;21.00;99.90;;;;;;5012509;28;20121;-60
2021/05/09 16:23:03;;;;;;;6.97;2.58;;;20.90;99.90;;;;;;5012927;28;20518;-61
2021/05/09 16:25:29;;;;;;;8.20;2.10;;;20.70;99.90;;;;;;5011462;28;20034;-61
2021/05/09 16:27:55;;;;;;;5.50;1.85;;;20.60;99.90;;;;;;5012970;28;20034;-60
2021/05/09 16:30:21;;;;;;;5.47;2.30;;;20.60;99.90;;;;;;5012391;28;20033;-61
2021/05/09 16:32:46;;;;;;;8.52;2.50;;;20.50;99.90;;;;;;5013353;28;20038;-61
2021/05/09 16:35:12;;;;;;;5.82;2.00;;;20.50;99.90;;;;;;5011733;28;20084;-61
2021/05/09 16:37:38;;;;;;;6.70;2.30;;;20.50;99.90;;;;;;5011027;28;20427;-62
2021/05/09 16:40:04;;;;;;;7.32;2.75;;;20.40;99.90;;;;;;5010284;28;20041;-62
2021/05/09 16:42:30;;;;;;;8.75;3.33;;;20.40;99.90;;;;;;5012465;28;20358;-61
2021/05/09 16:44:56;;;;;;;6.22;3.00;;;20.50;99.90;;;;;;5012435;28;20112;-61
2021/05/09 16:47:21;;;;;;;3.55;1.90;;;20.40;99.90;;;;;;5011711;28;20037;-60
2021/05/09 16:49:47;;;;;;;5.70;2.25;;;20.30;99.90;;;;;;5011652;28;20038;-60
2021/05/09 16:52:19;;;;;;;8.65;2.55;;;20.20;99.90;;;;;;5012315;28;20036;-62
2021/05/09 16:54:49;;;;;;;6.25;2.20;;;20.10;99.90;;;;;;5011698;28;20037;-61
2021/05/09 16:57:15;;;;;;;7.78;2.60;;;20.00;99.90;;;;;;4994928;28;20400;-62
2021/05/09 16:59:40;;;;;;;9.23;2.40;;;20.00;99.90;;;;;;4993723;28;20042;-59
2021/05/09 17:02:06;;;;;;;5.32;2.20;;;19.80;99.90;;;;;;5011926;28;20033;-61
2021/05/09 17:04:32;;;;;;;4.93;2.00;;;19.80;99.90;;;;;;5010956;28;20537;-61
2021/05/09 17:06:58;;;;;;;6.70;2.50;;;19.60;99.90;;;;;;5012680;28;20042;-61
2021/05/09 17:09:24;;;;;;;11.55;3.00;;;19.60;99.90;;;;;;4993506;28;20087;-61
2021/05/09 17:11:51;;;;;;;11.50;2.60;;;19.60;99.90;;;;;;4994117;28;20050;-61
2021/05/09 17:14:17;;;;;;;6.40;2.40;;;19.60;99.90;;;;;;5011696;28;20061;-62
2021/05/09 17:16:43;;;;;;;18.77;5.82;;;19.50;99.90;;;;;;5012599;28;20120;-63
2021/05/09 17:19:09;;;;;;;7.40;2.28;;;19.50;99.90;;;;;;5011400;28;20514;-61
2021/05/09 17:21:34;;;;;;;32.38;29.10;;;19.50;99.90;;;;;;5011851;28;20050;-61
2021/05/09 17:24:01;;;;;;;5.07;2.00;;;19.50;99.90;;;;;;5010505;28;20487;-61
2021/05/09 17:26:26;;;;;;;13.38;2.33;;;19.60;99.90;;;;;;5010222;28;20042;-60
2021/05/09 17:28:52;;;;;;;7.68;2.38;;;19.50;99.90;;;;;;5011178;28;20038;-59
2021/05/09 17:31:18;;;;;;;7.45;2.10;;;19.50;99.90;;;;;;5010086;28;20053;-59
2021/05/09 17:33:43;;;;;;;5.47;2.03;;;19.50;99.90;;;;;;5010292;28;20073;-62
2021/05/09 17:36:09;;;;;;;8.32;2.22;;;19.50;99.90;;;;;;5010064;28;20112;-60
2021/05/09 17:38:36;;;;;;;9.88;2.80;;;19.50;99.90;;;;;;5010603;28;20033;-60
2021/05/09 17:41:02;;;;;;;5.88;2.55;;;19.50;99.90;;;;;;5008228;28;20391;-61
2021/05/09 17:43:28;;;;;;;17.20;3.30;;;19.40;99.90;;;;;;5011739;28;20033;-60
2021/05/09 17:45:53;;;;;;;11.68;2.50;;;19.40;99.90;;;;;;4985690;28;20420;-60
2021/05/09 17:48:19;;;;;;;7.57;2.47;;;19.30;99.90;;;;;;5011973;28;20135;-60
2021/05/09 17:50:45;;;;;;;8.32;2.47;;;19.30;99.90;;;;;;5010334;28;20065;-61
2021/05/09 17:53:12;;;;;;;5.53;2.00;;;19.20;99.90;;;;;;5011480;28;20479;-62
2021/05/09 17:55:38;;;;;;;10.02;2.28;;;19.20;99.90;;;;;;5009727;28;20038;-61
2021/05/09 17:58:03;;;;;;;9.15;2.10;;;19.20;99.90;;;;;;5013414;28;20042;-61
2021/05/09 18:00:29;;;;;;;6.65;2.10;;;19.10;99.90;;;;;;5010131;28;20407;-62
2021/05/09 18:02:55;;;;;;;7.22;2.45;;;19.10;99.90;;;;;;5011098;28;20042;-61
2021/05/09 18:05:21;;;;;;;7.80;2.60;;;19.10;99.90;;;;;;5010632;28;20065;-61
2021/05/09 18:07:48;;;;;;;12.15;3.47;;;19.00;99.90;;;;;;5012056;28;20558;-61
2021/05/09 18:10:18;;;;;;;7.05;2.28;;;18.90;99.90;;;;;;5008120;28;20100;-61
2021/05/09 18:12:44;;;;;;;8.20;2.17;;;18.90;99.90;;;;;;5011550;28;20036;-61
2021/05/09 18:15:24;;;;;;;8.43;2.92;;;18.80;99.90;;;;;;5009385;28;20034;-61
2021/05/09 18:18:06;;;;;;;7.40;2.60;;;18.80;99.90;;;;;;5011177;28;20085;-61
2021/05/09 18:22:57;;;;;;;7.65;2.40;;;18.60;99.90;;;;;;5011172;28;20045;-62
2021/05/09 18:25:23;;;;;;;10.80;2.40;;;18.60;99.90;;;;;;5010327;28;20065;-60
2021/05/09 18:27:49;;;;;;;7.45;2.50;;;18.60;99.90;;;;;;5011605;28;20029;-61
2021/05/09 18:30:15;;;;;;;7.63;2.40;;;18.60;99.90;;;;;;5009550;28;20587;-61
2021/05/09 18:32:41;;;;;;;12.20;2.78;;;18.50;99.90;;;;;;5010954;28;20075;-61
2021/05/09 18:35:08;;;;;;;8.95;2.70;;;18.50;99.90;;;;;;5009306;28;20042;-60
2021/05/09 18:37:34;;;;;;;16.77;9.13;;;18.50;99.90;;;;;;5007781;28;20034;-61
2021/05/09 18:40:01;;;;;;;7.63;2.75;;;18.50;99.90;;;;;;5009389;28;20076;-60
2021/05/09 18:42:26;;;;;;;8.90;2.60;;;18.50;99.90;;;;;;5009085;28;20383;-60
2021/05/09 18:44:52;;;;;;;12.25;2.30;;;18.50;99.90;;;;;;5010007;28;20046;-61
2021/05/09 18:47:20;;;;;;;7.90;2.33;;;18.40;99.90;;;;;;5009952;28;20096;-62
2021/05/09 18:49:46;;;;;;;7.40;2.50;;;18.40;99.90;;;;;;5009812;28;20390;-61
2021/05/09 18:52:11;;;;;;;9.85;2.78;;;18.40;99.90;;;;;;5009061;28;20050;-61
2021/05/09 18:54:38;;;;;;;7.57;2.42;;;18.40;99.90;;;;;;5010499;28;20498;-61
2021/05/09 18:57:04;;;;;;;20.52;3.03;;;18.30;99.90;;;;;;5010494;28;20042;-61
2021/05/09 18:59:30;;;;;;;10.30;2.25;;;18.30;99.90;;;;;;5005627;28;20458;-61
2021/05/09 19:01:56;;;;;;;14.52;2.70;;;18.30;99.90;;;;;;5014963;28;20125;-60
2021/05/09 19:04:23;;;;;;;11.80;2.42;;;18.30;99.90;;;;;;5013515;28;20038;-60
2021/05/09 19:06:53;;;;;;;11.18;3.50;;;18.20;99.90;;;;;;5015142;28;20034;-62
2021/05/09 19:09:18;;;;;;;14.05;3.38;;;18.10;99.90;;;;;;5014164;28;20070;-59
2021/05/09 19:11:44;;;;;;;7.22;3.30;;;18.10;99.90;;;;;;5013870;28;20046;-59
2021/05/09 19:14:10;;;;;;;7.35;2.80;;;18.00;99.90;;;;;;5015156;28;20148;-59
2021/05/09 19:16:36;;;;;;;9.63;3.03;;;18.10;99.90;;;;;;5014404;28;20052;-60
2021/05/09 19:19:02;;;;;;;7.65;2.58;;;18.10;99.90;;;;;;5014673;28;20086;-60
2021/05/09 19:21:27;;;;;;;12.60;3.40;;;18.00;99.90;;;;;;5017335;28;20056;-61
2021/05/09 19:23:53;;;;;;;7.55;3.20;;;18.00;99.90;;;;;;5015673;28;21571;-61
2021/05/09 19:26:21;;;;;;;7.47;2.90;;;17.90;99.90;;;;;;5012789;28;20074;-61
2021/05/09 19:28:49;;;;;;;10.07;3.30;;;18.00;99.90;;;;;;5013699;28;20042;-61
2021/05/09 19:31:15;;;;;;;10.35;3.13;;;17.90;99.90;;;;;;5012881;28;20049;-61
2021/05/09 19:33:43;;;;;;;12.02;3.33;;;17.90;99.90;;;;;;5012627;28;20037;-60
2021/05/09 19:36:09;;;;;;;6.13;2.42;;;17.90;99.90;;;;;;5012975;28;20181;-61
2021/05/09 19:38:35;;;;;;;8.52;3.03;;;18.00;99.90;;;;;;5012427;28;20037;-62
2021/05/09 19:41:00;;;;;;;6.57;2.72;;;17.80;99.90;;;;;;5012423;28;20064;-61
2021/05/09 19:43:26;;;;;;;13.10;3.25;;;17.70;99.90;;;;;;5017101;28;20408;-62
2021/05/09 19:45:54;;;;;;;9.18;2.65;;;17.70;99.90;;;;;;5012580;28;20038;-61
2021/05/09 19:48:21;;;;;;;10.80;2.60;;;17.70;99.90;;;;;;5015835;28;20034;-60
2021/05/09 19:50:47;;;;;;;8.68;2.88;;;17.60;99.90;;;;;;5011270;28;20072;-60
2021/05/09 19:53:13;;;;;;;7.78;3.08;;;17.50;99.90;;;;;;5013994;28;20392;-61
2021/05/09 19:55:40;;;;;;;9.73;3.08;;;17.50;99.90;;;;;;5012377;28;20329;-63
2021/05/09 19:58:07;;;;;;;9.45;3.50;;;17.50;99.90;;;;;;5013063;28;20128;-60
2021/05/09 20:00:34;;;;;;;11.63;3.30;;;17.50;99.90;;;;;;5012036;28;20042;-59
2021/05/09 20:02:59;;;;;;;9.00;3.58;;;17.40;99.90;;;;;;5013789;28;20044;-62
2021/05/09 20:05:26;;;;;;;8.43;3.20;;;17.30;99.90;;;;;;5011595;28;20046;-62
2021/05/09 20:07:53;;;;;;;9.10;3.30;;;17.30;99.90;;;;;;5013485;28;20506;-64
2021/05/09 20:10:19;;;;;;;9.73;3.35;;;17.30;99.90;;;;;;5012644;28;20065;-61
2021/05/09 20:12:47;;;;;;;35.53;7.28;;;17.20;99.90;;;;;;5012169;28;20476;-61
2021/05/09 20:15:13;;;;;;;9.27;4.03;;;17.20;99.90;;;;;;5013297;28;20375;-64
2021/05/09 20:17:39;;;;;;;15.98;3.28;;;17.20;99.90;;;;;;5012805;28;20144;-62
2021/05/09 20:20:08;;;;;;;11.00;3.00;;;17.30;99.90;;;;;;5012389;28;20054;-60
2021/05/09 20:22:34;;;;;;;16.88;3.90;;;17.20;99.90;;;;;;5005079;28;20030;-62
2021/05/09 20:25:00;;;;;;;7.82;3.20;;;17.20;99.90;;;;;;5012127;28;20045;-62
2021/05/09 20:27:26;;;;;;;7.10;2.80;;;17.10;99.90;;;;;;5013187;28;20431;-61
2021/05/09 20:29:52;;;;;;;7.90;2.72;;;17.00;99.90;;;;;;5010527;28;20376;-62
2021/05/09 20:32:18;;;;;;;7.55;2.75;;;17.00;99.90;;;;;;5013173;28;20082;-61
2021/05/09 20:34:43;;;;;;;12.93;2.80;;;17.00;99.90;;;;;;5013524;28;20050;-62
2021/05/09 20:37:12;;;;;;;47.83;6.22;;;17.00;99.90;;;;;;5012434;28;20030;-63
2021/05/09 20:39:41;;;;;;;10.73;3.20;;;16.90;99.90;;;;;;5012962;28;20111;-62
2021/05/09 20:42:08;;;;;;;14.88;4.15;;;17.00;99.90;;;;;;5012307;28;20044;-61
2021/05/09 20:44:34;;;;;;;8.80;2.67;;;17.00;99.90;;;;;;5011262;28;20041;-59
2021/05/09 20:47:00;;;;;;;6.75;2.60;;;17.00;99.90;;;;;;5010901;28;20402;-61
2021/05/09 20:49:29;;;;;;;10.10;2.58;;;16.90;99.90;;;;;;5013433;28;20041;-61
2021/05/09 20:51:54;;;;;;;10.60;2.80;;;16.80;99.90;;;;;;5011084;28;20486;-60
2021/05/09 20:54:20;;;;;;;17.92;2.90;;;16.70;99.90;;;;;;5012346;28;20146;-60
2021/05/09 20:56:46;;;;;;;6.68;2.28;;;16.70;99.90;;;;;;5011753;28;20480;-61
2021/05/09 20:59:12;;;;;;;13.48;3.70;;;16.70;99.90;;;;;;5012098;28;20045;-60
2021/05/09 21:01:38;;;;;;;6.93;2.72;;;16.60;99.90;;;;;;5010615;28;20124;-60
2021/05/09 21:04:03;;;;;;;7.80;2.63;;;16.60;99.90;;;;;;5011716;28;20049;-61
2021/05/09 21:06:30;;;;;;;8.20;2.70;;;16.60;99.90;;;;;;5011875;28;20488;-61
2021/05/09 21:08:55;;;;;;;9.73;3.10;;;16.60;99.90;;;;;;4994658;28;20399;-60
2021/05/09 21:11:21;;;;;;;6.53;2.80;;;16.50;99.90;;;;;;5011365;28;20076;-61
2021/05/09 21:13:47;;;;;;;12.43;3.45;;;16.50;99.90;;;;;;5012243;28;20080;-61
2021/05/09 21:16:13;;;;;;;19.05;4.03;;;16.50;99.90;;;;;;5011445;28;20459;-61
2021/05/09 21:18:38;;;;;;;8.25;2.90;;;16.60;99.90;;;;;;5012294;28;20066;-61
2021/05/09 21:21:04;;;;;;;11.48;3.63;;;16.50;99.90;;;;;;5011090;28;20056;-60
2021/05/09 21:23:30;;;;;;;9.57;2.90;;;16.50;99.90;;;;;;5010521;28;20446;-61
2021/05/09 21:25:56;;;;;;;9.63;3.17;;;16.50;99.90;;;;;;5011564;28;20034;-60
2021/05/09 21:28:22;;;;;;;10.27;2.92;;;16.50;99.90;;;;;;5012012;28;20050;-61
2021/05/09 21:30:47;;;;;;;5.88;2.65;;;16.50;99.90;;;;;;5011563;28;20046;-62
2021/05/09 21:33:19;;;;;;;9.05;2.95;;;16.50;99.90;;;;;;5012049;28;20069;-60
2021/05/09 21:35:45;;;;;;;6.43;3.00;;;16.50;99.90;;;;;;4997942;28;20041;-61
2021/05/09 21:38:11;;;;;;;10.43;3.75;;;16.60;99.90;;;;;;5011036;28;20041;-61
2021/05/09 21:40:36;;;;;;;10.27;2.92;;;16.40;99.90;;;;;;5010955;28;20030;-59
2021/05/09 21:43:05;;;;;;;6.60;3.10;;;16.40;99.90;;;;;;5011572;28;20129;-61
2021/05/09 21:45:32;;;;;;;9.15;3.75;;;16.20;99.90;;;;;;5009926;28;20052;-63
2021/05/09 21:47:58;;;;;;;9.45;3.53;;;16.30;99.90;;;;;;5010807;28;20515;-61
2021/05/09 21:50:24;;;;;;;8.07;3.15;;;16.30;99.90;;;;;;5010435;28;20069;-63
2021/05/09 21:52:49;;;;;;;16.20;7.75;;;16.20;99.90;;;;;;5011204;28;20385;-62
2021/05/09 21:55:15;;;;;;;11.13;3.95;;;16.20;99.90;;;;;;5012482;28;20514;-61
2021/05/09 21:57:41;;;;;;;7.30;3.63;;;16.20;99.90;;;;;;5011122;28;20042;-63
2021/05/09 22:00:23;;;;;;;10.70;3.80;;;16.10;99.90;;;;;;5010558;28;20565;-60
2021/05/09 22:02:49;;;;;;;8.32;3.00;;;16.10;99.90;;;;;;4993034;28;20045;-61
2021/05/09 22:05:14;;;;;;;10.75;3.35;;;16.20;99.90;;;;;;5011372;28;20033;-61
2021/05/09 22:07:40;;;;;;;10.85;3.50;;;16.20;99.90;;;;;;5010738;28;20044;-61
2021/05/09 22:10:06;;;;;;;8.88;3.33;;;16.20;99.90;;;;;;5011258;28;20407;-61
2021/05/09 22:12:32;;;;;;;15.55;3.30;;;16.10;99.90;;;;;;5010894;28;20049;-63
2021/05/09 22:14:58;;;;;;;6.90;3.47;;;16.10;99.90;;;;;;5009530;28;20045;-61
2021/05/09 22:17:23;;;;;;;5.25;2.65;;;16.10;99.90;;;;;;5010146;28;20114;-60
2021/05/09 22:19:49;;;;;;;7.97;3.15;;;16.00;99.90;;;;;;5010789;28;20099;-63
2021/05/09 22:22:15;;;;;;;9.35;3.05;;;16.10;99.90;;;;;;5011113;28;20176;-61
2021/05/09 22:24:47;;;;;;;18.70;4.28;;;16.00;99.90;;;;;;5009634;28;20073;-62
2021/05/09 22:27:16;;;;;;;7.07;2.85;;;16.10;99.90;;;;;;5000717;28;20449;-61
2021/05/09 22:29:42;;;;;;;6.50;3.08;;;16.00;99.90;;;;;;5015832;28;20106;-62
2021/05/09 22:32:08;;;;;;;6.82;3.13;;;16.00;99.90;;;;;;5010295;28;20042;-64
2021/05/09 22:34:35;;;;;;;9.00;2.72;;;16.00;99.90;;;;;;5010153;28;20490;-61
2021/05/09 22:37:01;;;;;;;8.38;3.10;;;16.00;99.90;;;;;;5010433;28;20073;-61
2021/05/09 22:39:26;;;;;;;8.88;3.15;;;16.00;99.90;;;;;;5010680;28;20061;-61
2021/05/09 22:41:52;;;;;;;9.07;3.38;;;16.00;99.90;;;;;;5010698;28;20484;-62
2021/05/09 22:44:18;;;;;;;10.63;3.70;;;15.90;99.90;;;;;;5009996;28;20479;-60
2021/05/09 22:46:44;;;;;;;13.88;4.07;;;15.90;99.90;;;;;;4992058;28;20092;-60
2021/05/09 22:49:10;;;;;;;9.60;3.40;;;15.90;99.90;;;;;;5010713;28;20042;-60
2021/05/09 22:51:36;;;;;;;9.95;3.35;;;15.90;99.90;;;;;;5010382;28;20046;-60
2021/05/09 22:54:02;;;;;;;8.02;3.30;;;16.00;99.90;;;;;;5009960;28;20041;-61
2021/05/09 22:56:28;;;;;;;5.70;3.03;;;16.00;99.90;;;;;;5009704;28;20038;-60
2021/05/09 22:58:53;;;;;;;7.70;3.55;;;15.90;99.90;;;;;;5010631;28;20068;-61
2021/05/09 23:01:19;;;;;;;12.10;3.38;;;15.90;99.90;;;;;;5010074;28;20042;-63
2021/05/09 23:03:45;;;;;;;7.95;3.22;;;15.90;99.90;;;;;;5009822;28;20034;-61
2021/05/09 23:06:10;;;;;;;7.70;3.15;;;15.80;99.90;;;;;;5007330;28;20073;-61
2021/05/09 23:08:38;;;;;;;10.98;3.65;;;15.80;99.90;;;;;;5010564;28;20038;-61
2021/05/09 23:11:05;;;;;;;13.23;5.03;;;15.70;99.90;;;;;;5009782;28;20103;-60
2021/05/09 23:13:31;;;;;;;8.45;3.30;;;15.70;99.90;;;;;;5010246;28;20048;-60
2021/05/09 23:15:57;;;;;;;9.52;3.72;;;15.70;99.90;;;;;;5008487;28;20049;-59